sensor_id;sensor_type;location;lat;lon;timestamp;pressure;altitude;pressure_sealevel;temperature;humidity
19114;BME280;9689;51.052;13.772;2022-10-31T00:03:03;100791.50;;;11.01;88.77
19114;BME280;9689;51.052;13.772;2022-10-31T00:08:03;100791.63;;;10.94;88.58
19114;BME280;9689;51.052;13.772;2022-10-31T00:13:04;100794.22;;;10.95;89.16
19114;BME280;9689;51.052;13.772;2022-10-31T00:18:08;100798.66;;;10.89;88.29
19114;BME280;9689;51.052;13.772;2022-10-31T00:23:10;100795.22;;;10.85;88.28
19114;BME280;9689;51.052;13.772;2022-10-31T00:28:11;100806.53;;;10.84;88.49
19114;BME280;9689;51.052;13.772;2022-10-31T00:33:14;100806.63;;;10.76;89.32
19114;BME280;9689;51.052;13.772;2022-10-31T00:38:14;100806.69;;;10.73;89.15
19114;BME280;9689;51.052;13.772;2022-10-31T00:43:15;100803.25;;;10.68;88.00
19114;BME280;9689;51.052;13.772;2022-10-31T00:48:17;100799.88;;;10.62;88.23
19114;BME280;9689;51.052;13.772;2022-10-31T00:53:20;100803.34;;;10.59;88.84
19114;BME280;9689;51.052;13.772;2022-10-31T00:58:21;100811.25;;;10.55;89.03
19114;BME280;9689;51.052;13.772;2022-10-31T01:03:25;100808.72;;;10.48;88.75
19114;BME280;9689;51.052;13.772;2022-10-31T01:08:27;100816.53;;;10.47;88.81
19114;BME280;9689;51.052;13.772;2022-10-31T01:13:28;100815.72;;;10.43;88.72
19114;BME280;9689;51.052;13.772;2022-10-31T01:18:31;100820.09;;;10.40;89.48
19114;BME280;9689;51.052;13.772;2022-10-31T01:23:33;100817.47;;;10.41;89.20
19114;BME280;9689;51.052;13.772;2022-10-31T01:28:37;100821.00;;;10.37;89.15
19114;BME280;9689;51.052;13.772;2022-10-31T01:33:39;100817.56;;;10.35;89.69
19114;BME280;9689;51.052;13.772;2022-10-31T01:38:40;100814.97;;;10.34;89.10
19114;BME280;9689;51.052;13.772;2022-10-31T01:43:44;100815.00;;;10.29;88.86
19114;BME280;9689;51.052;13.772;2022-10-31T01:48:46;100820.25;;;10.25;89.30
19114;BME280;9689;51.052;13.772;2022-10-31T01:53:50;100818.53;;;10.24;89.25
19114;BME280;9689;51.052;13.772;2022-10-31T01:58:54;100822.03;;;10.19;89.20
19114;BME280;9689;51.052;13.772;2022-10-31T02:03:56;100817.66;;;10.22;89.07
19114;BME280;9689;51.052;13.772;2022-10-31T02:08:58;100824.66;;;10.16;89.16
19114;BME280;9689;51.052;13.772;2022-10-31T02:14:02;100822.94;;;10.17;89.64
19114;BME280;9689;51.052;13.772;2022-10-31T02:19:08;100822.97;;;10.11;89.74
19114;BME280;9689;51.052;13.772;2022-10-31T02:24:40;100822.22;;;10.01;89.65
19114;BME280;9689;51.052;13.772;2022-10-31T02:30:09;100827.34;;;10.06;89.79
19114;BME280;9689;51.052;13.772;2022-10-31T02:35:23;100834.38;;;9.99;90.12
19114;BME280;9689;51.052;13.772;2022-10-31T02:40:33;100842.13;;;10.04;90.08
19114;BME280;9689;51.052;13.772;2022-10-31T02:45:56;100833.50;;;9.97;90.49
19114;BME280;9689;51.052;13.772;2022-10-31T02:51:03;100843.06;;;10.00;90.29
19114;BME280;9689;51.052;13.772;2022-10-31T02:56:06;100839.66;;;9.91;89.89
19114;BME280;9689;51.052;13.772;2022-10-31T03:06:45;100843.19;;;9.84;89.77
19114;BME280;9689;51.052;13.772;2022-10-31T03:11:56;100856.22;;;9.83;89.90
19114;BME280;9689;51.052;13.772;2022-10-31T03:17:01;100857.09;;;9.80;89.57
19114;BME280;9689;51.052;13.772;2022-10-31T03:22:10;100860.59;;;9.76;89.65
19114;BME280;9689;51.052;13.772;2022-10-31T03:27:19;100858.91;;;9.69;90.30
19114;BME280;9689;51.052;13.772;2022-10-31T03:32:24;100856.28;;;9.72;90.24
19114;BME280;9689;51.052;13.772;2022-10-31T03:37:29;100862.44;;;9.62;89.70
19114;BME280;9689;51.052;13.772;2022-10-31T03:42:33;100872.00;;;9.55;89.39
19114;BME280;9689;51.052;13.772;2022-10-31T03:47:36;100864.22;;;9.54;90.05
19114;BME280;9689;51.052;13.772;2022-10-31T03:52:42;100865.13;;;9.50;89.58
19114;BME280;9689;51.052;13.772;2022-10-31T03:57:51;100874.69;;;9.49;89.73
19114;BME280;9689;51.052;13.772;2022-10-31T04:02:58;100872.94;;;9.45;89.47
19114;BME280;9689;51.052;13.772;2022-10-31T04:08:08;100879.91;;;9.42;89.56
19114;BME280;9689;51.052;13.772;2022-10-31T04:13:14;100872.16;;;9.34;89.54
19114;BME280;9689;51.052;13.772;2022-10-31T04:18:30;100878.25;;;9.27;89.51
19114;BME280;9689;51.052;13.772;2022-10-31T04:23:34;100883.47;;;9.27;90.00
19114;BME280;9689;51.052;13.772;2022-10-31T04:28:53;100880.91;;;9.22;90.07
19114;BME280;9689;51.052;13.772;2022-10-31T04:33:54;100877.44;;;9.19;89.70
19114;BME280;9689;51.052;13.772;2022-10-31T04:38:56;100881.81;;;9.14;89.83
19114;BME280;9689;51.052;13.772;2022-10-31T04:44:12;100887.88;;;9.13;89.83
19114;BME280;9689;51.052;13.772;2022-10-31T04:49:13;100889.59;;;9.15;90.53
19114;BME280;9689;51.052;13.772;2022-10-31T04:54:16;100891.34;;;9.10;89.66
19114;BME280;9689;51.052;13.772;2022-10-31T04:59:42;100890.47;;;9.10;89.68
19114;BME280;9689;51.052;13.772;2022-10-31T05:04:43;100889.66;;;9.06;89.88
19114;BME280;9689;51.052;13.772;2022-10-31T05:09:45;100891.38;;;9.01;89.47
19114;BME280;9689;51.052;13.772;2022-10-31T05:14:46;100890.53;;;9.00;89.91
19114;BME280;9689;51.052;13.772;2022-10-31T05:20:15;100886.25;;;8.95;89.87
19114;BME280;9689;51.052;13.772;2022-10-31T05:25:19;100894.91;;;8.89;89.60
19114;BME280;9689;51.052;13.772;2022-10-31T05:30:23;100894.91;;;8.85;89.68
19114;BME280;9689;51.052;13.772;2022-10-31T05:35:26;100894.06;;;8.81;89.62
19114;BME280;9689;51.052;13.772;2022-10-31T05:40:47;100899.28;;;8.73;89.86
19114;BME280;9689;51.052;13.772;2022-10-31T05:45:51;100901.88;;;8.73;90.03
19114;BME280;9689;51.052;13.772;2022-10-31T05:51:12;100907.97;;;8.69;89.66
19114;BME280;9689;51.052;13.772;2022-10-31T05:56:14;100914.91;;;8.69;89.60
19114;BME280;9689;51.052;13.772;2022-10-31T06:01:15;100921.81;;;8.65;89.86
19114;BME280;9689;51.052;13.772;2022-10-31T06:06:18;100921.81;;;8.67;89.70
19114;BME280;9689;51.052;13.772;2022-10-31T06:11:20;100921.81;;;8.67;89.53
19114;BME280;9689;51.052;13.772;2022-10-31T06:16:35;100925.28;;;8.70;89.61
19114;BME280;9689;51.052;13.772;2022-10-31T06:21:59;100925.28;;;8.67;89.68
19114;BME280;9689;51.052;13.772;2022-10-31T06:27:02;100939.13;;;8.74;89.59
19114;BME280;9689;51.052;13.772;2022-10-31T06:32:04;100939.09;;;8.77;89.52
19114;BME280;9689;51.052;13.772;2022-10-31T06:37:11;100948.63;;;8.86;89.15
19114;BME280;9689;51.052;13.772;2022-10-31T06:42:17;100955.53;;;8.91;89.10
19114;BME280;9689;51.052;13.772;2022-10-31T06:47:18;100946.88;;;8.94;88.45
19114;BME280;9689;51.052;13.772;2022-10-31T06:52:19;100961.56;;;9.02;88.53
19114;BME280;9689;51.052;13.772;2022-10-31T06:57:21;100967.59;;;9.15;88.59
19114;BME280;9689;51.052;13.772;2022-10-31T07:02:22;100963.22;;;9.20;88.00
19114;BME280;9689;51.052;13.772;2022-10-31T07:07:24;100966.69;;;9.31;87.86
19114;BME280;9689;51.052;13.772;2022-10-31T07:12:26;100967.53;;;9.35;87.65
19114;BME280;9689;51.052;13.772;2022-10-31T07:17:30;100970.06;;;9.46;87.68
19114;BME280;9689;51.052;13.772;2022-10-31T07:22:33;100977.81;;;9.61;87.76
19114;BME280;9689;51.052;13.772;2022-10-31T07:27:37;100986.41;;;9.72;87.28
19114;BME280;9689;51.052;13.772;2022-10-31T07:32:44;100981.16;;;9.80;86.60
19114;BME280;9689;51.052;13.772;2022-10-31T07:37:47;100975.84;;;9.97;86.97
19114;BME280;9689;51.052;13.772;2022-10-31T07:42:52;100987.94;;;10.08;86.31
19114;BME280;9689;51.052;13.772;2022-10-31T07:48:22;100988.72;;;10.23;86.02
19114;BME280;9689;51.052;13.772;2022-10-31T07:53:41;100984.25;;;10.38;85.28
19114;BME280;9689;51.052;13.772;2022-10-31T07:58:49;100991.97;;;10.51;85.42
19114;BME280;9689;51.052;13.772;2022-10-31T08:03:50;100981.44;;;10.63;85.47
19114;BME280;9689;51.052;13.772;2022-10-31T08:09:14;100986.94;;;11.17;86.88
19114;BME280;9689;51.052;13.772;2022-10-31T08:14:18;100987.56;;;11.37;86.14
19114;BME280;9689;51.052;13.772;2022-10-31T08:19:18;100978.09;;;11.96;84.88
19114;BME280;9689;51.052;13.772;2022-10-31T08:24:21;100966.69;;;12.03;83.01
19114;BME280;9689;51.052;13.772;2022-10-31T08:29:24;100971.56;;;12.26;81.91
19114;BME280;9689;51.052;13.772;2022-10-31T08:34:25;100968.03;;;12.29;80.00
19114;BME280;9689;51.052;13.772;2022-10-31T08:39:45;100962.75;;;12.81;78.20
19114;BME280;9689;51.052;13.772;2022-10-31T08:44:47;100972.47;;;12.73;77.79
19114;BME280;9689;51.052;13.772;2022-10-31T08:49:52;100966.50;;;12.66;78.06
19114;BME280;9689;51.052;13.772;2022-10-31T08:54:54;100959.53;;;12.65;78.19
19114;BME280;9689;51.052;13.772;2022-10-31T09:00:22;100960.63;;;13.00;77.96
19114;BME280;9689;51.052;13.772;2022-10-31T09:05:29;100957.59;;;13.23;76.83
19114;BME280;9689;51.052;13.772;2022-10-31T09:10:32;100961.63;;;13.39;77.08
19114;BME280;9689;51.052;13.772;2022-10-31T09:15:38;100965.38;;;13.68;75.44
19114;BME280;9689;51.052;13.772;2022-10-31T09:20:52;100970.47;;;13.74;75.60
19114;BME280;9689;51.052;13.772;2022-10-31T09:25:54;100969.03;;;13.99;74.80
19114;BME280;9689;51.052;13.772;2022-10-31T09:31:16;100965.34;;;14.08;74.59
19114;BME280;9689;51.052;13.772;2022-10-31T09:36:26;100959.09;;;14.12;74.31
19114;BME280;9689;51.052;13.772;2022-10-31T09:41:33;100962.03;;;14.35;73.69
19114;BME280;9689;51.052;13.772;2022-10-31T09:46:50;100954.69;;;14.51;73.08
19114;BME280;9689;51.052;13.772;2022-10-31T09:52:00;100948.09;;;14.69;72.46
19114;BME280;9689;51.052;13.772;2022-10-31T09:57:03;100946.19;;;14.74;71.50
19114;BME280;9689;51.052;13.772;2022-10-31T10:02:13;100954.56;;;14.88;71.40
19114;BME280;9689;51.052;13.772;2022-10-31T10:07:24;100949.81;;;15.01;70.93
19114;BME280;9689;51.052;13.772;2022-10-31T10:18:24;100940.63;;;15.47;69.70
19114;BME280;9689;51.052;13.772;2022-10-31T10:23:37;100938.78;;;15.78;68.67
19114;BME280;9689;51.052;13.772;2022-10-31T10:28:43;100925.97;;;15.96;67.98
19114;BME280;9689;51.052;13.772;2022-10-31T10:33:55;100920.41;;;16.05;66.93
19114;BME280;9689;51.052;13.772;2022-10-31T10:39:00;100914.53;;;16.23;67.34
19114;BME280;9689;51.052;13.772;2022-10-31T10:44:07;100910.28;;;16.46;66.31
19114;BME280;9689;51.052;13.772;2022-10-31T10:49:23;100905.16;;;16.66;65.65
19114;BME280;9689;51.052;13.772;2022-10-31T10:54:49;100901.19;;;16.81;64.18
19114;BME280;9689;51.052;13.772;2022-10-31T11:00:21;100895.69;;;16.87;63.52
19114;BME280;9689;51.052;13.772;2022-10-31T11:05:29;100898.22;;;17.13;62.72
19114;BME280;9689;51.052;13.772;2022-10-31T11:10:31;100885.84;;;17.15;62.60
19114;BME280;9689;51.052;13.772;2022-10-31T11:15:36;100886.06;;;17.33;62.66
19114;BME280;9689;51.052;13.772;2022-10-31T11:20:39;100878.72;;;17.41;62.65
19114;BME280;9689;51.052;13.772;2022-10-31T11:25:47;100876.72;;;17.47;63.22
19114;BME280;9689;51.052;13.772;2022-10-31T11:30:50;100860.25;;;17.63;62.81
19114;BME280;9689;51.052;13.772;2022-10-31T11:35:53;100843.88;;;17.78;63.29
19114;BME280;9689;51.052;13.772;2022-10-31T11:40:59;100842.69;;;17.85;61.77
19114;BME280;9689;51.052;13.772;2022-10-31T11:46:08;100837.66;;;18.01;61.13
19114;BME280;9689;51.052;13.772;2022-10-31T11:51:11;100842.69;;;18.07;61.01
19114;BME280;9689;51.052;13.772;2022-10-31T11:56:14;100836.66;;;18.24;62.04
19114;BME280;9689;51.052;13.772;2022-10-31T12:01:24;100825.91;;;18.28;61.28
19114;BME280;9689;51.052;13.772;2022-10-31T12:06:30;100818.84;;;18.29;60.82
19114;BME280;9689;51.052;13.772;2022-10-31T12:11:42;100815.88;;;18.36;61.20
19114;BME280;9689;51.052;13.772;2022-10-31T12:16:49;100810.59;;;18.36;60.45
19114;BME280;9689;51.052;13.772;2022-10-31T12:22:05;100806.78;;;18.44;60.77
19114;BME280;9689;51.052;13.772;2022-10-31T12:27:17;100800.22;;;18.52;60.66
19114;BME280;9689;51.052;13.772;2022-10-31T12:32:27;100793.78;;;18.58;61.21
19114;BME280;9689;51.052;13.772;2022-10-31T12:37:43;100790.22;;;18.79;59.65
19114;BME280;9689;51.052;13.772;2022-10-31T12:42:58;100781.22;;;18.83;59.47
19114;BME280;9689;51.052;13.772;2022-10-31T12:48:18;100782.03;;;18.85;59.05
19114;BME280;9689;51.052;13.772;2022-10-31T12:53:34;100764.81;;;18.96;58.69
19114;BME280;9689;51.052;13.772;2022-10-31T12:58:42;100757.94;;;18.91;58.29
19114;BME280;9689;51.052;13.772;2022-10-31T13:03:51;100763.66;;;18.82;58.17
19114;BME280;9689;51.052;13.772;2022-10-31T13:08:58;100756.16;;;18.73;58.54
19114;BME280;9689;51.052;13.772;2022-10-31T13:14:05;100751.22;;;18.84;58.31
19114;BME280;9689;51.052;13.772;2022-10-31T13:19:14;100743.75;;;18.94;58.40
19114;BME280;9689;51.052;13.772;2022-10-31T13:24:21;100743.53;;;18.99;57.15
19114;BME280;9689;51.052;13.772;2022-10-31T13:29:27;100733.72;;;19.01;57.30
19114;BME280;9689;51.052;13.772;2022-10-31T13:34:34;100736.97;;;18.88;57.45
19114;BME280;9689;51.052;13.772;2022-10-31T13:39:50;100729.97;;;18.87;57.45
19114;BME280;9689;51.052;13.772;2022-10-31T13:44:53;100719.06;;;18.95;57.32
19114;BME280;9689;51.052;13.772;2022-10-31T13:50:04;100722.22;;;19.02;56.02
19114;BME280;9689;51.052;13.772;2022-10-31T13:55:35;100715.41;;;18.98;56.74
19114;BME280;9689;51.052;13.772;2022-10-31T14:00:37;100710.19;;;18.96;56.37
19114;BME280;9689;51.052;13.772;2022-10-31T14:05:38;100711.13;;;18.95;57.00
19114;BME280;9689;51.052;13.772;2022-10-31T14:10:47;100700.63;;;18.93;56.88
19114;BME280;9689;51.052;13.772;2022-10-31T14:15:54;100695.50;;;18.90;57.61
19114;BME280;9689;51.052;13.772;2022-10-31T14:20:56;100689.03;;;18.79;57.89
19114;BME280;9689;51.052;13.772;2022-10-31T14:26:16;100686.09;;;18.66;58.45
19114;BME280;9689;51.052;13.772;2022-10-31T14:31:30;100681.53;;;18.51;58.66
19114;BME280;9689;51.052;13.772;2022-10-31T14:36:42;100686.06;;;18.47;59.30
19114;BME280;9689;51.052;13.772;2022-10-31T14:41:58;100679.09;;;18.27;60.15
19114;BME280;9689;51.052;13.772;2022-10-31T14:47:12;100667.66;;;18.08;60.96
19114;BME280;9689;51.052;13.772;2022-10-31T14:52:18;100676.59;;;17.85;62.31
19114;BME280;9689;51.052;13.772;2022-10-31T14:57:23;100675.72;;;17.64;63.14
19114;BME280;9689;51.052;13.772;2022-10-31T15:02:28;100667.88;;;17.42;64.09
19114;BME280;9689;51.052;13.772;2022-10-31T15:07:30;100672.22;;;17.23;64.65
19114;BME280;9689;51.052;13.772;2022-10-31T15:12:37;100665.00;;;17.06;65.88
19114;BME280;9689;51.052;13.772;2022-10-31T15:17:42;100668.25;;;16.91;66.50
19114;BME280;9689;51.052;13.772;2022-10-31T15:22:44;100655.97;;;16.70;67.24
19114;BME280;9689;51.052;13.772;2022-10-31T15:27:47;100661.06;;;16.51;68.42
19114;BME280;9689;51.052;13.772;2022-10-31T15:32:50;100654.81;;;16.30;69.15
19114;BME280;9689;51.052;13.772;2022-10-31T15:37:59;100659.22;;;16.29;70.98
19114;BME280;9689;51.052;13.772;2022-10-31T15:43:04;100651.06;;;16.14;71.35
19114;BME280;9689;51.052;13.772;2022-10-31T15:48:15;100656.06;;;15.96;72.72
19114;BME280;9689;51.052;13.772;2022-10-31T15:53:19;100649.22;;;15.92;72.18
19114;BME280;9689;51.052;13.772;2022-10-31T15:58:23;100647.84;;;15.82;73.03
19114;BME280;9689;51.052;13.772;2022-10-31T16:03:28;100641.91;;;15.77;74.03
19114;BME280;9689;51.052;13.772;2022-10-31T16:08:34;100631.25;;;15.30;75.03
19114;BME280;9689;51.052;13.772;2022-10-31T16:13:42;100627.03;;;14.99;75.79
19114;BME280;9689;51.052;13.772;2022-10-31T16:18:53;100627.81;;;14.75;76.85
19114;BME280;9689;51.052;13.772;2022-10-31T16:23:59;100629.06;;;14.63;77.37
19114;BME280;9689;51.052;13.772;2022-10-31T16:29:25;100626.84;;;14.51;77.70
19114;BME280;9689;51.052;13.772;2022-10-31T16:34:26;100635.78;;;14.44;78.38
19114;BME280;9689;51.052;13.772;2022-10-31T16:39:27;100643.06;;;14.34;78.60
19114;BME280;9689;51.052;13.772;2022-10-31T16:44:29;100630.75;;;14.36;79.12
19114;BME280;9689;51.052;13.772;2022-10-31T16:49:30;100638.91;;;14.27;79.12
19114;BME280;9689;51.052;13.772;2022-10-31T16:54:31;100638.31;;;14.18;79.35
19114;BME280;9689;51.052;13.772;2022-10-31T16:59:35;100641.22;;;14.08;79.61
19114;BME280;9689;51.052;13.772;2022-10-31T17:04:35;100647.38;;;14.06;79.71
19114;BME280;9689;51.052;13.772;2022-10-31T17:09:37;100636.31;;;13.96;80.03
19114;BME280;9689;51.052;13.772;2022-10-31T17:14:39;100636.50;;;13.90;80.17
19114;BME280;9689;51.052;13.772;2022-10-31T17:19:40;100631.53;;;13.79;80.42
19114;BME280;9689;51.052;13.772;2022-10-31T17:24:40;100632.66;;;13.71;81.41
19114;BME280;9689;51.052;13.772;2022-10-31T17:29:43;100631.22;;;13.59;81.87
19114;BME280;9689;51.052;13.772;2022-10-31T17:34:43;100634.16;;;13.48;81.89
19114;BME280;9689;51.052;13.772;2022-10-31T17:39:45;100623.06;;;13.39;82.26
19114;BME280;9689;51.052;13.772;2022-10-31T17:44:48;100621.31;;;13.39;82.62
19114;BME280;9689;51.052;13.772;2022-10-31T17:49:48;100630.06;;;13.38;82.92
19114;BME280;9689;51.052;13.772;2022-10-31T17:54:51;100615.41;;;13.31;82.95
19114;BME280;9689;51.052;13.772;2022-10-31T17:59:53;100616.28;;;13.32;82.84
19114;BME280;9689;51.052;13.772;2022-10-31T18:04:54;100614.41;;;13.35;82.93
19114;BME280;9689;51.052;13.772;2022-10-31T18:09:55;100616.22;;;13.33;82.99
19114;BME280;9689;51.052;13.772;2022-10-31T18:14:57;100610.91;;;13.36;83.27
19114;BME280;9689;51.052;13.772;2022-10-31T18:19:58;100617.75;;;13.42;82.15
19114;BME280;9689;51.052;13.772;2022-10-31T18:24:59;100614.25;;;13.41;83.06
19114;BME280;9689;51.052;13.772;2022-10-31T18:30:03;100602.28;;;13.33;82.95
19114;BME280;9689;51.052;13.772;2022-10-31T18:35:04;100607.50;;;13.33;82.93
19114;BME280;9689;51.052;13.772;2022-10-31T18:40:06;100598.94;;;13.26;83.16
19114;BME280;9689;51.052;13.772;2022-10-31T18:45:09;100599.81;;;13.26;83.12
19114;BME280;9689;51.052;13.772;2022-10-31T18:50:31;100594.72;;;13.22;83.01
19114;BME280;9689;51.052;13.772;2022-10-31T18:55:31;100588.84;;;13.12;83.89
19114;BME280;9689;51.052;13.772;2022-10-31T19:00:34;100590.78;;;13.04;84.07
19114;BME280;9689;51.052;13.772;2022-10-31T19:05:34;100590.84;;;13.01;83.46
19114;BME280;9689;51.052;13.772;2022-10-31T19:10:38;100583.84;;;13.01;83.68
19114;BME280;9689;51.052;13.772;2022-10-31T19:15:43;100584.28;;;12.85;84.66
19114;BME280;9689;51.052;13.772;2022-10-31T19:20:46;100581.22;;;12.67;84.75
19114;BME280;9689;51.052;13.772;2022-10-31T19:25:46;100580.63;;;12.56;85.39
19114;BME280;9689;51.052;13.772;2022-10-31T19:30:52;100584.03;;;12.58;86.39
19114;BME280;9689;51.052;13.772;2022-10-31T19:35:57;100577.00;;;12.62;86.98
19114;BME280;9689;51.052;13.772;2022-10-31T19:41:01;100574.22;;;12.68;86.64
19114;BME280;9689;51.052;13.772;2022-10-31T19:46:05;100569.91;;;12.67;86.24
19114;BME280;9689;51.052;13.772;2022-10-31T19:51:26;100566.38;;;12.68;86.52
19114;BME280;9689;51.052;13.772;2022-10-31T19:56:27;100563.00;;;12.64;85.91
19114;BME280;9689;51.052;13.772;2022-10-31T20:01:29;100556.22;;;12.56;86.06
19114;BME280;9689;51.052;13.772;2022-10-31T20:06:31;100536.69;;;12.35;85.49
19114;BME280;9689;51.052;13.772;2022-10-31T20:11:36;100525.44;;;12.31;86.12
19114;BME280;9689;51.052;13.772;2022-10-31T20:16:39;100530.75;;;12.28;86.13
19114;BME280;9689;51.052;13.772;2022-10-31T20:21:40;100533.47;;;12.24;86.10
19114;BME280;9689;51.052;13.772;2022-10-31T20:26:41;100536.09;;;12.22;86.04
19114;BME280;9689;51.052;13.772;2022-10-31T20:31:44;100532.69;;;12.20;86.41
19114;BME280;9689;51.052;13.772;2022-10-31T20:36:46;100522.19;;;12.22;86.87
19114;BME280;9689;51.052;13.772;2022-10-31T20:41:46;100525.78;;;12.16;86.29
19114;BME280;9689;51.052;13.772;2022-10-31T20:46:49;100521.63;;;12.09;86.37
19114;BME280;9689;51.052;13.772;2022-10-31T20:51:50;100502.22;;;12.19;86.12
19114;BME280;9689;51.052;13.772;2022-10-31T20:56:50;100508.53;;;12.10;86.46
19114;BME280;9689;51.052;13.772;2022-10-31T21:01:53;100504.94;;;12.14;86.91
19114;BME280;9689;51.052;13.772;2022-10-31T21:06:54;100494.44;;;12.16;86.73
19114;BME280;9689;51.052;13.772;2022-10-31T21:11:55;100492.88;;;12.09;86.23
19114;BME280;9689;51.052;13.772;2022-10-31T21:16:57;100493.03;;;12.03;87.12
19114;BME280;9689;51.052;13.772;2022-10-31T21:21:58;100487.16;;;11.93;87.10
19114;BME280;9689;51.052;13.772;2022-10-31T21:26:58;100489.91;;;11.87;87.32
19114;BME280;9689;51.052;13.772;2022-10-31T21:32:02;100482.19;;;11.79;87.85
19114;BME280;9689;51.052;13.772;2022-10-31T21:37:03;100492.69;;;11.78;87.86
19114;BME280;9689;51.052;13.772;2022-10-31T21:42:04;100474.44;;;11.76;86.73
19114;BME280;9689;51.052;13.772;2022-10-31T21:47:06;100474.53;;;11.72;87.44
19114;BME280;9689;51.052;13.772;2022-10-31T21:52:07;100460.50;;;11.77;86.91
19114;BME280;9689;51.052;13.772;2022-10-31T21:57:08;100459.78;;;11.69;87.49
19114;BME280;9689;51.052;13.772;2022-10-31T22:02:11;100449.44;;;11.66;87.38
19114;BME280;9689;51.052;13.772;2022-10-31T22:07:12;100437.53;;;11.53;87.72
19114;BME280;9689;51.052;13.772;2022-10-31T22:12:13;100441.00;;;11.53;87.34
19114;BME280;9689;51.052;13.772;2022-10-31T22:17:15;100438.50;;;11.49;88.54
19114;BME280;9689;51.052;13.772;2022-10-31T22:22:16;100426.44;;;11.43;87.55
19114;BME280;9689;51.052;13.772;2022-10-31T22:27:17;100432.59;;;11.41;88.88
19114;BME280;9689;51.052;13.772;2022-10-31T22:32:19;100429.28;;;11.32;88.95
19114;BME280;9689;51.052;13.772;2022-10-31T22:37:21;100431.16;;;11.26;88.64
19114;BME280;9689;51.052;13.772;2022-10-31T22:42:22;100412.97;;;11.23;88.28
19114;BME280;9689;51.052;13.772;2022-10-31T22:47:24;100398.13;;;11.25;87.52
19114;BME280;9689;51.052;13.772;2022-10-31T22:52:26;100399.81;;;11.27;88.37
19114;BME280;9689;51.052;13.772;2022-10-31T22:57:27;100405.38;;;11.11;88.41
19114;BME280;9689;51.052;13.772;2022-10-31T23:02:29;100395.94;;;11.05;89.16
19114;BME280;9689;51.052;13.772;2022-10-31T23:07:30;100384.50;;;11.12;88.96
19114;BME280;9689;51.052;13.772;2022-10-31T23:12:31;100381.94;;;11.09;88.53
19114;BME280;9689;51.052;13.772;2022-10-31T23:17:51;100384.31;;;11.20;89.43
19114;BME280;9689;51.052;13.772;2022-10-31T23:22:52;100367.81;;;11.19;89.27
19114;BME280;9689;51.052;13.772;2022-10-31T23:27:52;100359.09;;;11.20;90.18
19114;BME280;9689;51.052;13.772;2022-10-31T23:32:54;100347.75;;;11.23;90.20
19114;BME280;9689;51.052;13.772;2022-10-31T23:37:56;100338.00;;;11.31;89.73
19114;BME280;9689;51.052;13.772;2022-10-31T23:42:57;100331.19;;;11.24;89.76
19114;BME280;9689;51.052;13.772;2022-10-31T23:47:59;100325.19;;;11.20;89.68
19114;BME280;9689;51.052;13.772;2022-10-31T23:53:00;100318.25;;;11.19;90.69
19114;BME280;9689;51.052;13.772;2022-10-31T23:58:01;100314.72;;;11.22;90.65
